Time;durP1;ratioP1;P1;durP2;ratioP2;P2;SDS_P1;SDS_P2;PMS_P1;PMS_P2;Temp;Humidity;BMP_temperature;BMP_pressure;BME280_temperature;BME280_humidity;BME280_pressure;Samples;Min_cycle;Max_cycle;Signal;HPM_P1;HPM_P2
2023/03/04 00:01:05;;;;;;;12.15;8.88;;;10.00;96.70;;;;;;5067612;28;20066;-71
2023/03/04 00:03:33;;;;;;;10.13;8.43;;;10.10;96.70;;;;;;5075402;28;20054;-71
2023/03/04 00:06:04;;;;;;;56.60;27.15;;;10.00;96.70;;;;;;5082311;28;20052;-72
2023/03/04 00:08:32;;;;;;;20.42;11.80;;;9.80;96.70;;;;;;5077029;28;20745;-72
2023/03/04 00:11:00;;;;;;;29.10;16.05;;;9.90;96.70;;;;;;5068588;28;20048;-71
2023/03/04 00:13:29;;;;;;;22.15;13.05;;;9.80;96.70;;;;;;5079316;28;20109;-71
2023/03/04 00:15:57;;;;;;;17.75;10.38;;;9.80;96.70;;;;;;5077716;28;20039;-72
2023/03/04 00:18:25;;;;;;;17.42;9.82;;;9.80;96.70;;;;;;5067529;28;20101;-72
2023/03/04 00:20:53;;;;;;;14.95;9.55;;;9.70;96.70;;;;;;5076747;28;20044;-71
2023/03/04 00:23:23;;;;;;;16.15;10.35;;;9.70;96.70;;;;;;5056007;28;20139;-71
2023/03/04 00:25:51;;;;;;;12.73;9.55;;;9.70;96.70;;;;;;5075435;28;20055;-71
2023/03/04 00:28:19;;;;;;;14.25;9.95;;;9.50;96.70;;;;;;5076231;28;20075;-71
2023/03/04 00:30:47;;;;;;;13.05;9.30;;;9.50;96.70;;;;;;5081786;28;20036;-71
2023/03/04 00:33:15;;;;;;;12.00;8.55;;;9.60;96.70;;;;;;5075352;28;20570;-71
2023/03/04 00:35:44;;;;;;;12.52;8.90;;;9.50;96.70;;;;;;5075004;28;20632;-72
2023/03/04 00:38:12;;;;;;;11.90;9.13;;;9.50;96.70;;;;;;5069851;28;20033;-71
2023/03/04 00:40:43;;;;;;;12.95;9.05;;;9.40;96.70;;;;;;5079894;28;20048;-71
2023/03/04 00:43:11;;;;;;;11.80;9.75;;;9.40;96.70;;;;;;5079184;28;20048;-71
2023/03/04 00:45:39;;;;;;;14.52;9.95;;;9.20;96.70;;;;;;5072876;28;20051;-71
2023/03/04 00:48:07;;;;;;;12.35;8.82;;;9.20;96.70;;;;;;5081621;28;20044;-71
2023/03/04 00:50:36;;;;;;;11.88;9.25;;;9.10;96.70;;;;;;5070783;28;20042;-71
2023/03/04 00:53:07;;;;;;;15.45;10.27;;;9.30;96.70;;;;;;5077883;28;20055;-71
2023/03/04 00:55:35;;;;;;;12.57;8.93;;;9.30;96.70;;;;;;5073353;28;20117;-71
2023/03/04 00:58:04;;;;;;;14.48;9.50;;;9.40;96.70;;;;;;5060465;28;20048;-71
2023/03/04 01:00:32;;;;;;;15.48;10.70;;;9.30;96.70;;;;;;5072591;28;20043;-71
2023/03/04 01:03:01;;;;;;;14.77;10.25;;;9.30;96.70;;;;;;5074879;28;20143;-71
2023/03/04 01:05:29;;;;;;;15.68;10.52;;;9.30;96.70;;;;;;5069789;28;20044;-71
2023/03/04 01:07:57;;;;;;;14.63;9.77;;;9.20;96.70;;;;;;5075496;28;20119;-71
2023/03/04 01:10:27;;;;;;;13.25;9.90;;;9.30;96.70;;;;;;5065921;28;20585;-71
2023/03/04 01:12:56;;;;;;;14.32;9.48;;;9.30;96.70;;;;;;5072049;28;20409;-71
2023/03/04 01:15:25;;;;;;;13.00;9.23;;;9.30;96.70;;;;;;5074271;28;20044;-71
2023/03/04 01:17:54;;;;;;;12.07;8.68;;;9.30;96.70;;;;;;5076736;28;20055;-71
2023/03/04 01:20:22;;;;;;;12.77;8.90;;;9.30;96.70;;;;;;5072914;28;20056;-71
2023/03/04 01:22:50;;;;;;;11.75;8.52;;;9.30;96.70;;;;;;5068903;28;20126;-71
2023/03/04 01:25:18;;;;;;;12.25;8.77;;;9.30;96.70;;;;;;5068372;28;20613;-71
2023/03/04 01:27:46;;;;;;;12.20;8.43;;;9.30;96.70;;;;;;5074147;28;20557;-71
2023/03/04 01:30:14;;;;;;;11.95;8.48;;;9.10;96.70;;;;;;5078299;28;20089;-71
2023/03/04 01:32:44;;;;;;;10.35;8.05;;;9.10;96.70;;;;;;5076029;28;20049;-72
2023/03/04 01:35:12;;;;;;;10.95;8.60;;;9.10;96.70;;;;;;5068758;28;20044;-71
2023/03/04 01:37:40;;;;;;;10.15;7.82;;;9.10;96.70;;;;;;5074133;28;20076;-71
2023/03/04 01:40:11;;;;;;;12.63;8.45;;;9.10;96.70;;;;;;5069424;28;20135;-71
2023/03/04 01:42:40;;;;;;;10.85;8.25;;;9.20;96.70;;;;;;5069228;28;20110;-71
2023/03/04 01:45:14;;;;;;;11.75;8.32;;;9.10;96.70;;;;;;5079324;28;20071;-71
2023/03/04 01:47:47;;;;;;;11.55;8.57;;;9.10;96.70;;;;;;5074299;28;20051;-71
2023/03/04 01:50:19;;;;;;;12.40;8.82;;;9.00;96.70;;;;;;5051036;28;20105;-70
2023/03/04 01:52:47;;;;;;;11.07;7.53;;;9.00;96.70;;;;;;5078235;28;20147;-71
2023/03/04 01:55:18;;;;;;;8.40;6.50;;;9.00;96.70;;;;;;5074000;28;20504;-71
2023/03/04 01:57:47;;;;;;;8.60;6.60;;;9.00;96.70;;;;;;5049652;28;20048;-71
2023/03/04 02:00:26;;;;;;;8.93;6.32;;;8.90;96.70;;;;;;5072116;28;20041;-71
2023/03/04 02:02:59;;;;;;;6.90;5.60;;;8.90;96.70;;;;;;5051961;28;20047;-71
2023/03/04 02:05:28;;;;;;;7.72;6.15;;;8.80;96.70;;;;;;5054760;28;20105;-71
2023/03/04 02:07:58;;;;;;;8.57;5.57;;;8.80;96.70;;;;;;5063572;28;20044;-71
2023/03/04 02:10:27;;;;;;;9.40;5.50;;;8.70;96.70;;;;;;5079195;28;20055;-71
2023/03/04 02:12:56;;;;;;;6.00;4.50;;;8.70;96.70;;;;;;5070210;28;20152;-71
2023/03/04 02:15:24;;;;;;;7.07;4.80;;;8.80;96.70;;;;;;5076071;28;20032;-71
2023/03/04 02:17:52;;;;;;;5.35;4.18;;;8.80;96.70;;;;;;5077962;28;20147;-71
2023/03/04 02:20:34;;;;;;;9.68;5.90;;;8.60;96.70;;;;;;5069313;28;20090;-71
2023/03/04 02:23:08;;;;;;;7.88;4.88;;;8.50;96.70;;;;;;5069366;28;20048;-71
2023/03/04 02:25:45;;;;;;;7.03;5.00;;;8.40;96.70;;;;;;5060615;28;20052;-72
2023/03/04 02:28:29;;;;;;;6.70;4.82;;;8.40;96.70;;;;;;5052627;28;20040;-71
2023/03/04 02:31:20;;;;;;;7.93;4.60;;;8.40;96.70;;;;;;5067367;28;20398;-70
2023/03/04 02:33:57;;;;;;;6.80;4.80;;;8.40;96.70;;;;;;5067389;28;20052;-71
2023/03/04 02:36:27;;;;;;;6.45;4.70;;;8.40;96.70;;;;;;5058204;28;20799;-71
2023/03/04 02:39:02;;;;;;;7.85;4.68;;;8.50;96.70;;;;;;5077301;28;20040;-71
2023/03/04 02:41:30;;;;;;;5.72;4.35;;;8.40;96.70;;;;;;5070503;28;20040;-71
2023/03/04 02:44:01;;;;;;;7.25;4.28;;;8.40;96.70;;;;;;5057972;28;20055;-71
2023/03/04 02:46:29;;;;;;;8.68;4.43;;;8.50;96.70;;;;;;5075950;28;20064;-71
2023/03/04 02:48:58;;;;;;;5.45;4.00;;;8.40;96.70;;;;;;5058539;28;20075;-71
2023/03/04 02:51:27;;;;;;;6.13;4.40;;;8.30;96.70;;;;;;5078622;28;20055;-71
2023/03/04 02:53:56;;;;;;;6.50;4.47;;;8.20;96.70;;;;;;5075274;28;20043;-71
2023/03/04 02:56:24;;;;;;;7.97;4.60;;;8.20;96.70;;;;;;5067391;28;20503;-71
2023/03/04 02:58:52;;;;;;;8.02;4.30;;;8.40;96.70;;;;;;5076923;28;20275;-71
2023/03/04 03:01:22;;;;;;;5.00;4.28;;;8.30;96.70;;;;;;5055732;28;20052;-71
2023/03/04 03:03:50;;;;;;;6.57;4.60;;;8.20;96.70;;;;;;5066223;28;20147;-71
2023/03/04 03:06:18;;;;;;;6.70;4.38;;;8.20;96.70;;;;;;5071650;28;20464;-71
2023/03/04 03:08:46;;;;;;;7.70;4.57;;;8.10;96.70;;;;;;5069173;28;20044;-71
2023/03/04 03:11:15;;;;;;;8.38;4.60;;;8.10;96.70;;;;;;5077050;28;20485;-71
2023/03/04 03:13:44;;;;;;;6.00;4.40;;;8.10;96.70;;;;;;5076555;28;20111;-71
2023/03/04 03:16:13;;;;;;;6.57;4.47;;;8.20;96.70;;;;;;5079834;28;20093;-71
2023/03/04 03:18:44;;;;;;;8.63;4.38;;;8.10;96.70;;;;;;5068754;28;20052;-70
2023/03/04 03:21:12;;;;;;;7.32;4.50;;;8.10;96.70;;;;;;5059366;28;20622;-71
2023/03/04 03:23:42;;;;;;;6.93;4.45;;;8.10;96.70;;;;;;5071323;28;20048;-71
2023/03/04 03:26:10;;;;;;;8.05;4.53;;;8.10;96.70;;;;;;5074999;28;20163;-70
2023/03/04 03:28:38;;;;;;;6.78;4.85;;;8.10;96.70;;;;;;5078343;28;20046;-71
2023/03/04 03:31:06;;;;;;;6.03;4.82;;;8.20;96.70;;;;;;5073988;28;20554;-71
2023/03/04 03:33:35;;;;;;;7.82;4.53;;;8.10;96.70;;;;;;5072763;28;20131;-71
2023/03/04 03:36:05;;;;;;;9.90;5.03;;;8.10;96.70;;;;;;5072827;28;20124;-71
2023/03/04 03:38:34;;;;;;;5.65;4.47;;;8.20;96.70;;;;;;5072769;28;20043;-71
2023/03/04 03:41:01;;;;;;;6.75;4.63;;;8.10;96.70;;;;;;5068068;28;20044;-71
2023/03/04 03:43:30;;;;;;;7.03;4.20;;;8.10;96.70;;;;;;5074796;28;20064;-71
2023/03/04 03:45:58;;;;;;;6.28;4.43;;;8.00;96.70;;;;;;5071026;28;20037;-71
2023/03/04 03:48:26;;;;;;;7.03;4.45;;;8.00;96.70;;;;;;5081124;28;20036;-71
2023/03/04 03:50:54;;;;;;;5.10;4.05;;;7.90;96.70;;;;;;5077349;28;20039;-71
2023/03/04 03:53:24;;;;;;;6.22;4.25;;;7.80;96.70;;;;;;5081428;28;20040;-71
2023/03/04 03:55:52;;;;;;;11.23;4.93;;;7.70;96.70;;;;;;5079656;28;20047;-71
2023/03/04 03:58:20;;;;;;;5.40;3.65;;;7.60;96.70;;;;;;5062778;28;20047;-71
2023/03/04 04:00:48;;;;;;;8.60;4.63;;;7.70;96.70;;;;;;5071509;28;20555;-71
2023/03/04 04:03:17;;;;;;;5.68;4.03;;;7.70;96.70;;;;;;5075118;28;20040;-71
2023/03/04 04:05:45;;;;;;;6.22;4.55;;;7.70;96.70;;;;;;5072462;28;20047;-71
2023/03/04 04:08:13;;;;;;;7.63;4.45;;;7.70;96.70;;;;;;5075694;28;20051;-71
2023/03/04 04:10:43;;;;;;;5.57;3.60;;;7.60;96.70;;;;;;5074958;28;20161;-71
2023/03/04 04:13:12;;;;;;;5.90;4.03;;;7.70;96.70;;;;;;5074086;28;20097;-71
2023/03/04 04:15:40;;;;;;;6.15;4.05;;;7.60;96.70;;;;;;5076966;28;20073;-71
2023/03/04 04:18:08;;;;;;;7.63;4.32;;;7.50;96.70;;;;;;5079681;28;20204;-71
2023/03/04 04:20:36;;;;;;;7.47;4.30;;;7.50;96.70;;;;;;5073641;28;20114;-71
2023/03/04 04:23:04;;;;;;;7.15;4.32;;;7.60;96.70;;;;;;5079390;28;20044;-71
2023/03/04 04:25:33;;;;;;;6.30;4.30;;;7.60;96.70;;;;;;5076142;28;20087;-71
2023/03/04 04:28:02;;;;;;;5.47;3.92;;;7.60;96.70;;;;;;5071614;28;20402;-71
2023/03/04 04:30:30;;;;;;;7.10;4.32;;;7.50;96.70;;;;;;5072001;28;20032;-70
2023/03/04 04:33:00;;;;;;;6.13;4.22;;;7.60;96.70;;;;;;5079434;28;20067;-71
2023/03/04 04:35:29;;;;;;;6.45;4.07;;;7.60;96.70;;;;;;5074787;27;20048;-71
2023/03/04 04:37:57;;;;;;;6.03;4.07;;;7.60;96.70;;;;;;5076318;28;20036;-70
2023/03/04 04:40:25;;;;;;;6.28;4.90;;;7.50;96.70;;;;;;5077513;28;20140;-71
2023/03/04 04:42:53;;;;;;;6.60;4.00;;;7.50;96.70;;;;;;5058461;28;20522;-71
2023/03/04 04:45:26;;;;;;;8.45;4.47;;;7.50;96.70;;;;;;5075320;28;20162;-70
2023/03/04 04:47:56;;;;;;;7.35;4.53;;;7.50;96.70;;;;;;5073415;28;20085;-71
2023/03/04 04:50:24;;;;;;;6.72;4.32;;;7.50;96.70;;;;;;5075193;28;20700;-71
2023/03/04 04:52:52;;;;;;;7.45;4.75;;;7.50;96.70;;;;;;5075684;28;20433;-72
2023/03/04 04:55:21;;;;;;;8.38;4.93;;;7.40;96.70;;;;;;5068325;28;20072;-71
2023/03/04 04:57:49;;;;;;;6.30;4.25;;;7.40;96.70;;;;;;5080072;28;20040;-72
2023/03/04 05:00:18;;;;;;;7.22;4.72;;;7.40;96.70;;;;;;5073997;28;20064;-72
2023/03/04 05:02:47;;;;;;;8.40;5.70;;;7.30;96.70;;;;;;5077726;28;20036;-71
2023/03/04 05:05:16;;;;;;;7.85;5.63;;;7.20;96.70;;;;;;5076438;28;20054;-72
2023/03/04 05:07:44;;;;;;;7.53;5.25;;;7.20;96.70;;;;;;5070114;28;20055;-72
2023/03/04 05:10:12;;;;;;;8.02;5.40;;;7.30;96.70;;;;;;5079894;28;20087;-71
2023/03/04 05:12:40;;;;;;;7.57;5.78;;;7.40;96.70;;;;;;5060528;28;20059;-72
2023/03/04 05:15:09;;;;;;;7.35;5.75;;;7.40;96.70;;;;;;5073323;28;20052;-71
2023/03/04 05:17:37;;;;;;;8.60;5.82;;;7.40;96.70;;;;;;5072771;28;20089;-70
2023/03/04 05:20:08;;;;;;;6.28;5.15;;;7.50;96.70;;;;;;5067773;28;20048;-72
2023/03/04 05:22:36;;;;;;;7.88;5.15;;;7.40;96.70;;;;;;5078442;28;20093;-71
2023/03/04 05:25:05;;;;;;;7.70;5.40;;;7.40;96.70;;;;;;5066262;28;20040;-71
2023/03/04 05:27:33;;;;;;;6.65;5.05;;;7.40;96.70;;;;;;5075925;28;20557;-72
2023/03/04 05:30:01;;;;;;;7.85;5.47;;;7.40;96.70;;;;;;5078404;28;20073;-71
2023/03/04 05:32:29;;;;;;;9.63;5.55;;;7.40;96.70;;;;;;5077355;28;20730;-71
2023/03/04 05:34:57;;;;;;;6.47;4.97;;;7.30;96.70;;;;;;5075987;28;20422;-71
2023/03/04 05:37:27;;;;;;;9.05;5.50;;;7.20;96.70;;;;;;5070201;28;20036;-71
2023/03/04 05:39:55;;;;;;;7.43;5.28;;;7.10;96.70;;;;;;5071752;28;20803;-71
2023/03/04 05:42:23;;;;;;;8.45;5.57;;;7.10;96.70;;;;;;5069902;28;20122;-71
2023/03/04 05:44:51;;;;;;;9.23;5.72;;;7.10;96.70;;;;;;5078633;28;20498;-71
2023/03/04 05:47:19;;;;;;;8.18;5.30;;;7.20;96.70;;;;;;5075874;28;20046;-71
2023/03/04 05:49:47;;;;;;;7.22;5.32;;;7.20;96.70;;;;;;5077192;28;20481;-71
2023/03/04 05:52:15;;;;;;;9.25;5.65;;;7.30;96.70;;;;;;5069333;28;20551;-71
2023/03/04 05:54:44;;;;;;;7.50;6.25;;;7.40;96.70;;;;;;5060598;28;20102;-71
2023/03/04 05:57:12;;;;;;;9.55;6.07;;;7.50;96.70;;;;;;5074552;28;20048;-71
2023/03/04 05:59:40;;;;;;;7.90;5.85;;;7.30;96.70;;;;;;5070966;28;20048;-71
2023/03/04 06:02:08;;;;;;;10.23;6.45;;;7.10;96.70;;;;;;5071654;28;20032;-71
2023/03/04 06:04:36;;;;;;;9.50;6.32;;;6.90;96.70;;;;;;5079374;28;20039;-71
2023/03/04 06:07:04;;;;;;;9.27;6.30;;;6.70;96.70;;;;;;5076320;28;20048;-71
2023/03/04 06:09:32;;;;;;;10.52;6.40;;;6.80;96.70;;;;;;5073416;28;20118;-71
2023/03/04 06:12:02;;;;;;;11.38;6.38;;;6.90;96.70;;;;;;5070571;28;20052;-72
2023/03/04 06:14:30;;;;;;;9.80;6.97;;;7.10;96.70;;;;;;5070651;28;20040;-71
2023/03/04 06:16:58;;;;;;;8.48;6.30;;;7.00;96.70;;;;;;5081645;28;20048;-71
2023/03/04 06:19:25;;;;;;;8.88;6.53;;;7.00;96.70;;;;;;5076244;28;20521;-71
2023/03/04 06:21:53;;;;;;;11.45;6.75;;;6.70;96.70;;;;;;5076953;28;20048;-71
2023/03/04 06:24:22;;;;;;;15.25;8.82;;;6.80;96.70;;;;;;5074483;28;20046;-71
2023/03/04 06:26:49;;;;;;;15.63;9.50;;;7.00;96.70;;;;;;5077757;28;20052;-71
2023/03/04 06:29:19;;;;;;;17.23;10.15;;;7.00;96.70;;;;;;5076184;28;20520;-71
2023/03/04 06:31:47;;;;;;;16.83;10.32;;;6.70;96.70;;;;;;5079190;28;20071;-73
2023/03/04 06:34:15;;;;;;;18.60;9.57;;;6.90;96.70;;;;;;5089713;28;20183;-73
2023/03/04 06:36:43;;;;;;;15.90;10.15;;;7.10;96.70;;;;;;5098035;28;20044;-74
2023/03/04 06:39:11;;;;;;;18.85;10.73;;;7.20;96.70;;;;;;5081640;28;20044;-73
2023/03/04 06:41:39;;;;;;;16.23;9.90;;;7.30;96.70;;;;;;5095092;28;20075;-73
2023/03/04 06:44:07;;;;;;;16.48;10.38;;;7.40;96.70;;;;;;5091400;28;20039;-73
2023/03/04 06:46:37;;;;;;;15.43;10.80;;;7.40;96.70;;;;;;5102887;28;20047;-73
2023/03/04 06:49:05;;;;;;;16.75;11.02;;;7.50;96.70;;;;;;5100731;28;20062;-73
2023/03/04 06:51:33;;;;;;;13.90;10.63;;;7.40;96.70;;;;;;5084983;28;20494;-72
2023/03/04 06:54:01;;;;;;;17.92;10.77;;;7.50;96.70;;;;;;5097149;28;20044;-73
2023/03/04 06:56:29;;;;;;;15.40;10.93;;;7.50;96.70;;;;;;5082183;28;20447;-75
2023/03/04 06:58:58;;;;;;;15.23;10.73;;;7.60;96.70;;;;;;5095069;28;20340;-73
2023/03/04 07:01:27;;;;;;;16.08;10.32;;;7.60;96.70;;;;;;5099039;28;20040;-73
2023/03/04 07:03:57;;;;;;;16.67;10.80;;;7.70;96.70;;;;;;5101769;28;20059;-75
2023/03/04 07:06:27;;;;;;;14.85;10.75;;;7.70;96.70;;;;;;5089357;28;20501;-74
2023/03/04 07:08:56;;;;;;;14.02;10.07;;;7.80;96.70;;;;;;5093429;28;20059;-74
2023/03/04 07:11:24;;;;;;;14.63;9.82;;;7.90;96.70;;;;;;5091063;28;20048;-74
2023/03/04 07:13:53;;;;;;;13.45;9.88;;;8.00;96.70;;;;;;5065386;28;20311;-74
2023/03/04 07:16:22;;;;;;;13.95;9.32;;;8.10;96.70;;;;;;5094765;28;20326;-75
2023/03/04 07:18:50;;;;;;;13.63;9.80;;;8.20;96.70;;;;;;5096614;28;21015;-74
2023/03/04 07:21:20;;;;;;;13.88;9.85;;;8.20;96.70;;;;;;5096612;28;20039;-74
2023/03/04 07:23:48;;;;;;;14.57;9.90;;;8.30;96.70;;;;;;5104900;28;20051;-74
2023/03/04 07:26:16;;;;;;;14.52;10.20;;;8.30;96.70;;;;;;5099351;28;20394;-74
2023/03/04 07:28:44;;;;;;;15.27;10.13;;;8.40;96.70;;;;;;5106284;28;20623;-74
2023/03/04 07:31:34;;;;;;;13.70;9.43;;;8.40;96.70;;;;;;5106506;28;20101;-74
2023/03/04 07:34:05;;;;;;;13.73;9.25;;;8.40;96.70;;;;;;5057199;28;20052;-74
2023/03/04 07:36:36;;;;;;;15.35;10.00;;;8.60;96.70;;;;;;5079441;28;20075;-74
2023/03/04 07:39:16;;;;;;;12.85;9.18;;;8.60;96.70;;;;;;5073336;28;20079;-74
2023/03/04 07:41:44;;;;;;;15.75;9.25;;;8.60;96.70;;;;;;5070876;28;20497;-74
2023/03/04 07:44:12;;;;;;;12.32;9.05;;;8.70;96.70;;;;;;5081781;28;20506;-74
2023/03/04 07:46:40;;;;;;;12.70;8.05;;;8.80;96.70;;;;;;5080066;28;20469;-74
2023/03/04 07:49:10;;;;;;;12.25;9.20;;;8.80;96.70;;;;;;5076161;28;20072;-74
2023/03/04 07:51:40;;;;;;;11.50;8.07;;;8.90;96.70;;;;;;5084512;28;20044;-74
2023/03/04 07:54:09;;;;;;;10.90;7.38;;;9.00;96.70;;;;;;5057177;28;20041;-74
2023/03/04 07:56:37;;;;;;;9.05;7.28;;;9.00;96.70;;;;;;5072405;28;20119;-74
2023/03/04 07:59:05;;;;;;;12.35;9.10;;;9.10;96.70;;;;;;5084174;28;20040;-74
2023/03/04 08:01:35;;;;;;;11.18;8.25;;;9.20;96.70;;;;;;5081146;28;20051;-74
2023/03/04 08:04:04;;;;;;;10.90;8.00;;;9.30;96.70;;;;;;5084115;28;20131;-74
2023/03/04 08:06:33;;;;;;;11.43;7.88;;;9.30;96.70;;;;;;5065346;28;20528;-72
2023/03/04 08:09:05;;;;;;;13.38;8.02;;;9.40;96.70;;;;;;5050642;28;20136;-72
2023/03/04 08:11:35;;;;;;;11.75;7.45;;;9.50;96.70;;;;;;5082741;28;20532;-72
2023/03/04 08:14:03;;;;;;;13.35;7.60;;;9.60;96.70;;;;;;5083071;28;20059;-72
2023/03/04 08:16:31;;;;;;;10.15;7.05;;;9.70;96.70;;;;;;5066226;28;20047;-72
2023/03/04 08:19:03;;;;;;;11.90;7.65;;;9.80;96.70;;;;;;5075597;28;20043;-73
2023/03/04 08:21:31;;;;;;;11.85;7.05;;;9.90;96.70;;;;;;5081984;28;20097;-73
2023/03/04 08:24:01;;;;;;;11.48;6.43;;;10.00;96.70;;;;;;5079106;28;20040;-72
2023/03/04 08:26:33;;;;;;;9.23;5.97;;;10.10;96.70;;;;;;5078078;28;20051;-74
2023/03/04 08:29:03;;;;;;;13.45;8.63;;;10.20;96.70;;;;;;5081209;28;20043;-75
2023/03/04 08:31:32;;;;;;;9.90;5.43;;;10.40;96.70;;;;;;5067977;28;20046;-75
2023/03/04 08:34:01;;;;;;;8.40;4.05;;;10.60;96.70;;;;;;5082750;28;20048;-75
2023/03/04 08:36:29;;;;;;;6.18;3.28;;;10.70;96.70;;;;;;5046733;28;20059;-74
2023/03/04 08:38:57;;;;;;;8.75;3.78;;;10.90;96.70;;;;;;5077552;28;20444;-74
2023/03/04 08:41:26;;;;;;;5.88;3.13;;;11.10;96.70;;;;;;5082994;28;20055;-77
2023/03/04 08:43:55;;;;;;;4.93;3.38;;;11.30;96.70;;;;;;5073079;28;20048;-76
2023/03/04 08:46:23;;;;;;;9.18;3.60;;;11.40;96.70;;;;;;5074309;28;20494;-73
2023/03/04 08:48:51;;;;;;;11.02;3.65;;;11.50;96.70;;;;;;5056378;28;20032;-73
2023/03/04 08:51:20;;;;;;;6.07;3.28;;;11.60;96.70;;;;;;5051988;28;20052;-73
2023/03/04 08:53:48;;;;;;;5.40;2.72;;;11.80;96.70;;;;;;5054718;28;20037;-73
2023/03/04 08:56:17;;;;;;;8.02;3.30;;;11.90;96.70;;;;;;5051955;28;20129;-73
2023/03/04 08:58:45;;;;;;;8.18;3.30;;;12.00;96.70;;;;;;5053904;28;20050;-72
2023/03/04 09:01:15;;;;;;;7.03;3.10;;;12.10;96.70;;;;;;5060211;28;20048;-72
2023/03/04 09:03:43;;;;;;;6.85;2.80;;;12.10;96.70;;;;;;5073642;28;20105;-73
2023/03/04 09:06:14;;;;;;;7.20;3.83;;;12.20;96.70;;;;;;5069957;28;20040;-76
2023/03/04 09:08:43;;;;;;;6.22;3.50;;;12.30;96.70;;;;;;5073637;28;20056;-74
2023/03/04 09:11:11;;;;;;;9.85;4.47;;;12.40;96.70;;;;;;5079196;28;20444;-74
2023/03/04 09:13:39;;;;;;;6.40;3.08;;;12.40;96.70;;;;;;5066163;28;20063;-73
2023/03/04 09:16:09;;;;;;;9.43;4.20;;;12.50;96.70;;;;;;5059870;28;20193;-73
2023/03/04 09:18:40;;;;;;;9.60;6.03;;;12.60;96.70;;;;;;5073627;28;20444;-73
2023/03/04 09:21:09;;;;;;;9.57;5.38;;;12.70;96.70;;;;;;5077516;28;20041;-73
2023/03/04 09:23:37;;;;;;;7.18;3.35;;;12.80;96.70;;;;;;5070462;28;20094;-73
2023/03/04 09:26:17;;;;;;;8.98;3.58;;;12.90;96.70;;;;;;5081998;28;20051;-72
2023/03/04 09:28:48;;;;;;;5.07;3.60;;;12.90;96.70;;;;;;5067135;28;20133;-73
2023/03/04 09:31:16;;;;;;;11.18;3.75;;;13.10;96.70;;;;;;5072952;28;20084;-74
2023/03/04 09:33:46;;;;;;;9.27;3.78;;;13.10;96.70;;;;;;5082174;28;20051;-74
2023/03/04 09:36:14;;;;;;;8.38;3.78;;;13.20;96.70;;;;;;5073964;28;20104;-74
2023/03/04 09:38:42;;;;;;;11.50;4.50;;;13.30;96.70;;;;;;5067772;28;20051;-73
2023/03/04 09:41:16;;;;;;;6.60;4.03;;;13.40;96.70;;;;;;5077881;28;20067;-72
2023/03/04 09:43:56;;;;;;;6.25;3.35;;;13.50;96.70;;;;;;5058639;28;20421;-74
2023/03/04 09:46:32;;;;;;;6.97;3.08;;;13.60;96.70;;;;;;5063050;28;20048;-74
2023/03/04 09:49:03;;;;;;;7.45;3.78;;;13.60;96.70;;;;;;5081621;28;20472;-75
2023/03/04 09:51:45;;;;;;;6.47;3.72;;;13.70;96.70;;;;;;5049858;28;20048;-75
2023/03/04 09:54:24;;;;;;;4.93;2.90;;;13.80;96.70;;;;;;5070320;28;20080;-74
2023/03/04 09:56:57;;;;;;;6.35;3.25;;;13.90;96.70;;;;;;5072857;28;20052;-74
2023/03/04 09:59:32;;;;;;;7.40;2.65;;;13.90;96.70;;;;;;5077741;28;20097;-74
2023/03/04 10:02:12;;;;;;;4.55;3.30;;;14.00;96.70;;;;;;5078059;28;20399;-73
2023/03/04 10:04:47;;;;;;;5.90;3.22;;;14.10;96.70;;;;;;5062115;28;20036;-74
2023/03/04 10:07:21;;;;;;;9.68;3.25;;;14.20;96.70;;;;;;5079101;28;20055;-75
2023/03/04 10:09:56;;;;;;;7.25;4.03;;;14.30;96.70;;;;;;5071594;28;20044;-74
2023/03/04 10:12:30;;;;;;;7.50;3.33;;;14.40;96.70;;;;;;5078832;28;20562;-75
2023/03/04 10:15:00;;;;;;;7.38;3.20;;;14.40;96.70;;;;;;5064351;28;20052;-74
2023/03/04 10:17:38;;;;;;;6.68;3.58;;;14.50;96.70;;;;;;5081407;28;20640;-74
2023/03/04 10:20:17;;;;;;;6.03;3.05;;;14.50;96.70;;;;;;5071006;28;20056;-74
2023/03/04 10:22:47;;;;;;;4.50;2.95;;;14.60;96.70;;;;;;5070935;28;20044;-74
2023/03/04 10:25:19;;;;;;;8.73;3.28;;;14.70;96.70;;;;;;5068489;28;20044;-73
2023/03/04 10:27:54;;;;;;;6.72;2.88;;;14.80;96.70;;;;;;5064354;28;20559;-74
2023/03/04 10:30:31;;;;;;;8.65;3.60;;;14.90;96.70;;;;;;5078623;28;20459;-73
2023/03/04 10:32:59;;;;;;;6.68;3.42;;;15.10;96.70;;;;;;5065677;28;20067;-72
2023/03/04 10:35:36;;;;;;;6.82;3.17;;;15.20;96.70;;;;;;5072874;28;20561;-73
2023/03/04 10:38:05;;;;;;;5.20;3.38;;;15.20;96.70;;;;;;5050192;28;20054;-73
2023/03/04 10:40:38;;;;;;;9.75;3.90;;;15.10;96.70;;;;;;5058947;28;20044;-73
2023/03/04 10:43:14;;;;;;;5.55;3.08;;;15.20;96.70;;;;;;5077722;28;20040;-73
2023/03/04 10:45:43;;;;;;;;;;;15.40;96.70;;;;;;5062813;28;20067;-72
2023/03/04 10:48:20;;;;;;;5.57;3.10;;;15.60;96.70;;;;;;5079037;28;19924;-74
2023/03/04 10:50:50;;;;;;;6.30;3.13;;;15.60;96.70;;;;;;5081893;28;20048;-71
2023/03/04 10:53:28;;;;;;;6.72;3.47;;;15.50;96.70;;;;;;5063618;28;20078;-72
2023/03/04 10:55:57;;;;;;;5.13;3.08;;;15.40;96.70;;;;;;5055167;28;20675;-76
2023/03/04 10:58:25;;;;;;;5.60;3.97;;;15.40;96.70;;;;;;5060002;28;20086;-73
2023/03/04 11:01:01;;;;;;;4.95;2.95;;;15.50;96.70;;;;;;5068549;28;20517;-74
2023/03/04 11:03:32;;;;;;;6.75;3.53;;;15.80;96.70;;;;;;5070378;28;20080;-73
2023/03/04 11:06:16;;;;;;;6.72;2.92;;;15.90;96.70;;;;;;5070735;28;20148;-73
2023/03/04 11:08:52;;;;;;;7.93;3.10;;;15.90;96.70;;;;;;5078344;28;20044;-74
2023/03/04 11:11:30;;;;;;;6.90;3.28;;;16.00;96.70;;;;;;5075843;28;20048;-73
2023/03/04 11:14:00;;;;;;;7.63;2.90;;;16.00;96.70;;;;;;5069069;28;20119;-74
2023/03/04 11:16:30;;;;;;;7.20;3.63;;;16.20;96.70;;;;;;5076249;28;20048;-74
2023/03/04 11:19:04;;;;;;;6.35;2.67;;;16.10;96.70;;;;;;5077837;28;20039;-73
2023/03/04 11:21:38;;;;;;;5.28;2.67;;;16.00;96.70;;;;;;5066968;28;20040;-75
2023/03/04 11:24:13;;;;;;;6.32;2.78;;;16.10;96.70;;;;;;5060811;28;20530;-75
2023/03/04 11:27:02;;;;;;;6.10;2.88;;;16.20;96.70;;;;;;5059670;28;20490;-75
2023/03/04 11:29:36;;;;;;;6.93;3.10;;;16.50;96.70;;;;;;5070331;28;20052;-73
2023/03/04 11:32:09;;;;;;;4.95;2.70;;;16.50;96.70;;;;;;5073676;28;20553;-75
2023/03/04 11:34:43;;;;;;;5.97;2.60;;;16.50;96.70;;;;;;5081426;28;20048;-73
2023/03/04 11:37:20;;;;;;;5.65;2.92;;;16.60;96.70;;;;;;5066862;28;20055;-75
2023/03/04 11:39:53;;;;;;;5.43;2.25;;;16.60;96.70;;;;;;5061069;28;20080;-75
2023/03/04 11:42:34;;;;;;;6.20;3.00;;;16.60;96.70;;;;;;5046810;28;20059;-74
2023/03/04 11:45:03;;;;;;;4.95;2.90;;;16.60;96.70;;;;;;5079278;28;20047;-74
2023/03/04 11:47:43;;;;;;;5.78;2.38;;;16.60;96.70;;;;;;5080272;28;20044;-73
2023/03/04 11:50:28;;;;;;;4.20;2.10;;;16.70;96.70;;;;;;5078752;28;20048;-73
2023/03/04 11:53:32;;;;;;;6.25;2.85;;;17.00;96.70;;;;;;5075867;28;20418;-74
2023/03/04 11:56:15;;;;;;;4.88;2.50;;;17.20;96.70;;;;;;5073880;28;20491;-73
2023/03/04 11:59:06;;;;;;;8.45;2.30;;;17.20;96.70;;;;;;5043362;28;20099;-73
2023/03/04 12:01:42;;;;;;;3.90;2.00;;;17.40;96.70;;;;;;5095915;28;20101;-72
2023/03/04 12:04:23;;;;;;;3.53;2.50;;;17.50;96.70;;;;;;5083087;28;20048;-72
2023/03/04 12:07:02;;;;;;;9.23;5.68;;;17.50;96.70;;;;;;5076624;28;20051;-73
2023/03/04 12:09:40;;;;;;;3.80;2.25;;;17.60;96.70;;;;;;5075106;28;20125;-72
2023/03/04 12:12:29;;;;;;;5.85;2.63;;;17.60;96.70;;;;;;5081608;28;20056;-73
2023/03/04 12:15:08;;;;;;;8.63;2.28;;;17.80;96.70;;;;;;5073391;28;20044;-73
2023/03/04 12:17:59;;;;;;;6.70;2.30;;;17.80;96.70;;;;;;5066983;28;20146;-72
2023/03/04 12:20:40;;;;;;;5.85;2.35;;;17.80;96.70;;;;;;5073023;28;20058;-72
2023/03/04 12:23:28;;;;;;;4.40;2.55;;;17.80;96.70;;;;;;5077816;28;20052;-72
2023/03/04 12:26:01;;;;;;;6.07;2.60;;;17.90;96.70;;;;;;5068248;28;20049;-72
2023/03/04 12:28:50;;;;;;;5.55;2.25;;;18.00;96.70;;;;;;5080416;28;20708;-73
2023/03/04 12:31:35;;;;;;;4.68;2.15;;;18.20;96.70;;;;;;5073997;28;20041;-72
2023/03/04 12:34:39;;;;;;;4.13;2.28;;;18.00;96.70;;;;;;5080641;28;20524;-72
2023/03/04 12:37:29;;;;;;;3.55;1.80;;;17.90;96.70;;;;;;5063521;28;20052;-72
2023/03/04 12:40:32;;;;;;;3.90;2.22;;;17.90;96.70;;;;;;5079228;28;20067;-73
2023/03/04 12:43:12;;;;;;;3.95;2.13;;;17.90;96.70;;;;;;5084836;28;20038;-72
2023/03/04 12:45:46;;;;;;;4.68;2.17;;;18.00;96.70;;;;;;5082606;28;20829;-73
2023/03/04 12:48:26;;;;;;;3.67;2.05;;;18.20;96.70;;;;;;5081311;28;20414;-73
2023/03/04 12:51:06;;;;;;;6.68;4.47;;;18.50;96.70;;;;;;5068067;28;20043;-73
2023/03/04 12:53:42;;;;;;;8.48;4.70;;;18.50;96.70;;;;;;5082576;28;20044;-73
2023/03/04 12:56:22;;;;;;;4.22;2.17;;;18.40;96.70;;;;;;5069286;28;20391;-73
2023/03/04 12:58:53;;;;;;;5.60;2.05;;;18.20;96.70;;;;;;5067257;28;20059;-73
2023/03/04 13:01:26;;;;;;;3.63;1.48;;;18.20;96.70;;;;;;5062779;28;20131;-77
2023/03/04 13:04:02;;;;;;;3.80;1.70;;;18.30;96.70;;;;;;5071348;28;20040;-74
2023/03/04 13:06:42;;;;;;;6.50;2.20;;;18.40;96.70;;;;;;5076146;28;20054;-72
2023/03/04 13:09:18;;;;;;;5.25;2.10;;;18.40;96.70;;;;;;5068248;28;20051;-74
2023/03/04 13:11:53;;;;;;;3.72;2.58;;;18.60;96.70;;;;;;5078080;28;20445;-73